Posted on

West Africa

I had the pleasure of flying around West Africa and took some pics in Cabinda, Angola and Libreville, Gabon.

 

 

 

 

 

 

 

Posted on

American Airlines Application, late 1990’s or early 2000’s

Looking through some of my old stuff and I came across an AA app, probably from the late 1999 or early 2000’s.  It still used the ancient “Scantron” type,  computer readable bubble format.  Also, for this privilege, you had to send a “NON-REFUNDABLE UNDER ANY CIRCUMSTANCE”, their emphasis, not mine, $100 check.

 

Posted on

KAPA Delayed Departure

KAPA FC

Chose the other day to delay my departure for weather related reasons.  The TRACON was evacuated as a precaution as well.

KAPA 112153Z 17013G19KT 10SM FC TS SCT060CB BKN120 BKN250 27/14 A3027 RMK FUNNEL CLOUD B50 5NM NORTH OF AIRPORT MOV UNKNOWN AO2 TSB49 SLP175 OCNL LTGICCG VC SW TS VC SW MOV NE CB VC NW-N MOV NE T02670139